Time;durP1;ratioP1;P1;durP2;ratioP2;P2;SDS_P1;SDS_P2;PMS_P1;PMS_P2;Temp;Humidity;BMP_temperature;BMP_pressure;BME280_temperature;BME280_humidity;BME280_pressure;Samples;Min_cycle;Max_cycle;Signal;HPM_P1;HPM_P2
2022/08/17 00:04:57;;;;;;;7.13;6.43;;;;;;;;;;10272860;28;20524;-58
2022/08/17 00:09:56;;;;;;;8.32;6.30;;;;;;;;;;10274416;28;20072;-57
2022/08/17 00:14:54;;;;;;;6.13;5.25;;;;;;;;;;10272174;28;20069;-58
2022/08/17 00:19:54;;;;;;;6.25;5.75;;;;;;;;;;10262396;28;20127;-57
2022/08/17 00:24:52;;;;;;;8.32;5.90;;;;;;;;;;10273777;28;20068;-58
2022/08/17 00:29:50;;;;;;;9.80;6.07;;;;;;;;;;10273530;28;20073;-57
2022/08/17 00:34:49;;;;;;;8.18;6.82;;;;;;;;;;10272100;28;20037;-56
2022/08/17 00:39:48;;;;;;;6.90;6.22;;;;;;;;;;10279424;28;20085;-57
2022/08/17 00:44:47;;;;;;;6.72;6.13;;;;;;;;;;10280254;28;20462;-57
2022/08/17 00:49:45;;;;;;;10.02;5.85;;;;;;;;;;10280299;28;20507;-56
2022/08/17 00:54:45;;;;;;;7.50;6.43;;;;;;;;;;10280029;28;20085;-57
2022/08/17 00:59:46;;;;;;;10.38;6.75;;;;;;;;;;10279836;28;20068;-56
2022/08/17 01:05:00;;;;;;;6.88;6.18;;;;;;;;;;10280179;28;20076;-57
2022/08/17 01:09:59;;;;;;;11.63;5.97;;;;;;;;;;10273079;28;20083;-57
2022/08/17 01:14:58;;;;;;;6.45;5.72;;;;;;;;;;10279528;28;20071;-56
2022/08/17 01:19:57;;;;;;;8.85;6.88;;;;;;;;;;10279459;28;20072;-56
2022/08/17 01:24:58;;;;;;;6.97;6.28;;;;;;;;;;10278847;28;20076;-56
2022/08/17 01:29:59;;;;;;;10.93;5.90;;;;;;;;;;10278767;28;20083;-56
2022/08/17 01:34:59;;;;;;;8.02;6.22;;;;;;;;;;10279416;28;20498;-58
2022/08/17 01:40:01;;;;;;;10.43;6.60;;;;;;;;;;10272053;28;20472;-58
2022/08/17 01:45:06;;;;;;;6.65;6.00;;;;;;;;;;10272017;28;20479;-58
2022/08/17 01:50:07;;;;;;;6.30;5.70;;;;;;;;;;10279173;28;20048;-58
2022/08/17 01:55:07;;;;;;;7.00;6.28;;;;;;;;;;10279748;28;20473;-58
2022/08/17 02:00:08;;;;;;;11.20;6.28;;;;;;;;;;10278151;28;20077;-58
2022/08/17 02:05:07;;;;;;;7.45;6.63;;;;;;;;;;10284031;28;20072;-59
2022/08/17 02:10:08;;;;;;;6.43;5.78;;;;;;;;;;10277475;28;20511;-58
2022/08/17 02:15:17;;;;;;;6.57;6.00;;;;;;;;;;10277260;28;20044;-58
2022/08/17 02:20:15;;;;;;;6.93;6.22;;;;;;;;;;10276955;28;20069;-57
2022/08/17 02:25:36;;;;;;;6.75;5.90;;;;;;;;;;10276530;28;20087;-58
2022/08/17 02:30:34;;;;;;;6.85;5.72;;;;;;;;;;10277101;28;20478;-58
2022/08/17 02:35:52;;;;;;;8.88;6.30;;;;;;;;;;10273964;28;20100;-58
2022/08/17 02:40:52;;;;;;;6.40;5.80;;;;;;;;;;10276381;28;20088;-58
2022/08/17 02:45:50;;;;;;;7.82;6.05;;;;;;;;;;10272107;28;20079;-58
2022/08/17 02:50:49;;;;;;;7.65;6.07;;;;;;;;;;10272455;28;20072;-58
2022/08/17 02:55:47;;;;;;;7.00;6.13;;;;;;;;;;10271848;28;20073;-58
2022/08/17 03:00:47;;;;;;;7.65;5.97;;;;;;;;;;10273422;28;20059;-58
2022/08/17 03:05:46;;;;;;;7.90;6.25;;;;;;;;;;10275197;28;20077;-58
2022/08/17 03:10:45;;;;;;;6.80;6.20;;;;;;;;;;10275153;28;20072;-58
2022/08/17 03:15:44;;;;;;;6.85;6.18;;;;;;;;;;10274832;28;20072;-58
2022/08/17 03:20:44;;;;;;;8.25;5.90;;;;;;;;;;10274651;28;20067;-57
2022/08/17 03:25:44;;;;;;;8.73;6.50;;;;;;;;;;10274038;28;20075;-58
2022/08/17 03:30:43;;;;;;;7.78;6.10;;;;;;;;;;10274538;28;20092;-59
2022/08/17 03:35:41;;;;;;;6.90;5.75;;;;;;;;;;10273716;28;20075;-58
2022/08/17 03:40:41;;;;;;;6.55;5.95;;;;;;;;;;10273917;28;20080;-57
2022/08/17 03:56:52;;;;;;;7.78;6.28;;;;;;;;;;10268716;28;20041;-58
2022/08/17 04:01:52;;;;;;;5.80;5.30;;;;;;;;;;10268362;28;20053;-58
2022/08/17 04:06:51;;;;;;;6.30;5.70;;;;;;;;;;10271178;28;20483;-58
2022/08/17 04:11:51;;;;;;;12.60;10.85;;;;;;;;;;10272729;28;20072;-59
2022/08/17 04:16:49;;;;;;;14.45;8.52;;;;;;;;;;10273051;28;20073;-58
2022/08/17 04:21:48;;;;;;;9.70;6.25;;;;;;;;;;10271268;28;20056;-59
2022/08/17 04:26:47;;;;;;;10.50;9.20;;;;;;;;;;10273375;28;20486;-59
2022/08/17 04:31:53;;;;;;;11.55;8.20;;;;;;;;;;10272278;28;20451;-59
2022/08/17 04:36:51;;;;;;;8.45;6.25;;;;;;;;;;10273117;28;20079;-59
2022/08/17 04:42:15;;;;;;;10.05;7.93;;;;;;;;;;10272399;28;20088;-59
2022/08/17 04:47:15;;;;;;;8.85;7.95;;;;;;;;;;10272709;28;20079;-60
2022/08/17 04:52:14;;;;;;;8.68;7.82;;;;;;;;;;10272941;28;20060;-58
2022/08/17 04:57:32;;;;;;;9.70;6.65;;;;;;;;;;10273492;28;20525;-57
2022/08/17 05:02:45;;;;;;;7.95;6.75;;;;;;;;;;10272694;28;20083;-56
2022/08/17 05:07:47;;;;;;;7.43;6.03;;;;;;;;;;10272103;28;20092;-58
2022/08/17 05:12:46;;;;;;;10.32;8.52;;;;;;;;;;10272506;28;20041;-57
2022/08/17 05:17:46;;;;;;;10.82;6.55;;;;;;;;;;10272464;28;20064;-58
2022/08/17 05:22:49;;;;;;;11.38;5.60;;;;;;;;;;10274445;28;20082;-56
2022/08/17 05:27:48;;;;;;;10.50;6.32;;;;;;;;;;10278351;28;20553;-58
2022/08/17 05:32:52;;;;;;;10.40;8.75;;;;;;;;;;10278266;28;20072;-58
2022/08/17 05:37:52;;;;;;;15.50;10.63;;;;;;;;;;10278907;28;20057;-57
2022/08/17 05:43:03;;;;;;;11.18;5.60;;;;;;;;;;10278068;28;20088;-58
2022/08/17 05:48:03;;;;;;;13.88;6.70;;;;;;;;;;10278048;28;20140;-59
2022/08/17 05:53:03;;;;;;;8.23;5.88;;;;;;;;;;10278855;28;20069;-58
2022/08/17 05:58:08;;;;;;;6.88;5.85;;;;;;;;;;10278486;28;20079;-58
2022/08/17 06:03:24;;;;;;;9.32;8.35;;;;;;;;;;10277350;28;20055;-57
2022/08/17 06:08:38;;;;;;;7.15;5.93;;;;;;;;;;10277308;28;20073;-58
2022/08/17 06:13:47;;;;;;;9.50;7.25;;;;;;;;;;10273320;28;20461;-58
2022/08/17 06:18:49;;;;;;;11.68;5.43;;;;;;;;;;10275048;28;20088;-58
2022/08/17 06:23:49;;;;;;;8.95;6.75;;;;;;;;;;10278082;28;20077;-58
2022/08/17 06:28:50;;;;;;;7.75;6.18;;;;;;;;;;10278004;28;20080;-58
2022/08/17 06:33:50;;;;;;;9.88;6.32;;;;;;;;;;10277257;28;20555;-58
2022/08/17 06:38:52;;;;;;;11.20;8.65;;;;;;;;;;10276192;28;20052;-58
2022/08/17 06:43:56;;;;;;;6.95;6.25;;;;;;;;;;10276482;28;20084;-58
2022/08/17 06:49:01;;;;;;;9.07;7.68;;;;;;;;;;10277125;28;21105;-58
2022/08/17 06:54:04;;;;;;;7.03;6.32;;;;;;;;;;10276649;28;20076;-58
2022/08/17 06:59:02;;;;;;;9.40;7.93;;;;;;;;;;10276048;28;20064;-59
2022/08/17 07:04:06;;;;;;;7.60;6.82;;;;;;;;;;10276445;28;20076;-59
2022/08/17 07:09:14;;;;;;;10.68;8.57;;;;;;;;;;10272616;28;20076;-58
2022/08/17 07:14:18;;;;;;;8.33;6.00;;;;;;;;;;10275174;28;20076;-59
2022/08/17 07:19:21;;;;;;;15.05;6.20;;;;;;;;;;10273553;28;20075;-59
2022/08/17 07:24:27;;;;;;;8.43;6.43;;;;;;;;;;10275862;28;20518;-58
2022/08/17 07:29:27;;;;;;;9.07;5.47;;;;;;;;;;10274788;28;20069;-59
2022/08/17 07:34:27;;;;;;;10.00;7.05;;;;;;;;;;10274229;28;20064;-58
2022/08/17 07:39:27;;;;;;;7.50;6.43;;;;;;;;;;10273966;28;20075;-57
2022/08/17 07:44:25;;;;;;;8.32;5.53;;;;;;;;;;10274318;28;20057;-58
2022/08/17 07:49:32;;;;;;;9.48;5.65;;;;;;;;;;10273872;28;20084;-58
2022/08/17 07:54:35;;;;;;;8.98;7.25;;;;;;;;;;10273068;28;20041;-58
2022/08/17 07:59:35;;;;;;;12.73;7.43;;;;;;;;;;10272724;28;20566;-59
2022/08/17 08:04:36;;;;;;;8.50;5.80;;;;;;;;;;10273329;28;20505;-59
2022/08/17 08:10:04;;;;;;;7.03;5.38;;;;;;;;;;10272558;28;20080;-58
2022/08/17 08:15:08;;;;;;;7.22;5.40;;;;;;;;;;10266802;28;20075;-59
2022/08/17 08:20:08;;;;;;;8.85;6.07;;;;;;;;;;10267226;28;20116;-59
2022/08/17 08:25:32;;;;;;;6.60;5.30;;;;;;;;;;10272858;28;20084;-58
2022/08/17 08:30:33;;;;;;;5.88;5.20;;;;;;;;;;10273687;28;20087;-58
2022/08/17 08:35:32;;;;;;;10.40;5.40;;;;;;;;;;10273338;28;20060;-61
2022/08/17 08:40:37;;;;;;;11.73;6.55;;;;;;;;;;10272076;28;20522;-59
2022/08/17 08:45:43;;;;;;;7.45;5.55;;;;;;;;;;10272230;28;20064;-60
2022/08/17 08:50:46;;;;;;;6.15;5.40;;;;;;;;;;10271847;28;20072;-59
2022/08/17 08:55:48;;;;;;;6.55;5.90;;;;;;;;;;10272639;28;20077;-59
2022/08/17 09:00:48;;;;;;;6.88;5.35;;;;;;;;;;10278998;28;20045;-60
2022/08/17 09:05:55;;;;;;;6.03;5.28;;;;;;;;;;10279724;28;20071;-59
2022/08/17 09:10:58;;;;;;;8.10;5.22;;;;;;;;;;10276473;28;20068;-60
2022/08/17 09:15:59;;;;;;;9.05;4.78;;;;;;;;;;10279524;28;20103;-61
2022/08/17 09:20:58;;;;;;;10.10;5.40;;;;;;;;;;10279267;28;20084;-61
2022/08/17 09:25:59;;;;;;;5.75;5.13;;;;;;;;;;10279326;28;20075;-60
2022/08/17 09:31:02;;;;;;;5.47;4.90;;;;;;;;;;10278708;28;20136;-60
2022/08/17 09:36:03;;;;;;;6.43;5.22;;;;;;;;;;10278552;28;20548;-61
2022/08/17 09:41:09;;;;;;;6.82;4.93;;;;;;;;;;10278083;28;20191;-61
2022/08/17 09:46:10;;;;;;;8.23;5.10;;;;;;;;;;10277618;28;20524;-60
2022/08/17 09:51:10;;;;;;;9.07;5.57;;;;;;;;;;10277424;28;20065;-59
2022/08/17 09:56:17;;;;;;;8.23;5.88;;;;;;;;;;10277031;28;20077;-60
2022/08/17 10:01:23;;;;;;;5.70;5.13;;;;;;;;;;10277415;28;20041;-60
2022/08/17 10:06:23;;;;;;;5.25;4.70;;;;;;;;;;10276313;28;20076;-59
2022/08/17 10:12:14;;;;;;;6.00;5.47;;;;;;;;;;10274703;28;20114;-60
2022/08/17 10:16:54;;;;;;;5.95;4.95;;;;;;;;;;10272039;28;20084;-59
2022/08/17 10:27:31;;;;;;;5.22;4.72;;;;;;;;;;10273760;28;20076;-60
2022/08/17 10:32:32;;;;;;;9.30;4.65;;;;;;;;;;10277716;28;20465;-59
2022/08/17 10:37:40;;;;;;;4.97;4.35;;;;;;;;;;10277314;28;20083;-59
2022/08/17 10:42:45;;;;;;;5.50;4.72;;;;;;;;;;10275464;28;20115;-58
2022/08/17 10:47:58;;;;;;;5.55;5.00;;;;;;;;;;10275858;28;20081;-59
2022/08/17 10:53:03;;;;;;;6.45;5.22;;;;;;;;;;10273097;28;20529;-59
2022/08/17 11:03:25;;;;;;;5.05;4.60;;;;;;;;;;10297604;27;20414;-60
2022/08/17 11:08:34;;;;;;;4.28;3.88;;;;;;;;;;10283076;28;20084;-60
2022/08/17 11:13:38;;;;;;;10.73;3.55;;;;;;;;;;10291393;28;20068;-60
2022/08/17 11:18:52;;;;;;;6.95;3.55;;;;;;;;;;10286770;28;20073;-62
2022/08/17 11:24:01;;;;;;;4.75;3.53;;;;;;;;;;10258141;28;20084;-60
2022/08/17 11:29:02;;;;;;;10.18;4.00;;;;;;;;;;10290060;28;20110;-60
2022/08/17 11:34:02;;;;;;;5.78;4.35;;;;;;;;;;10289541;28;20091;-60
2022/08/17 11:39:05;;;;;;;6.30;4.03;;;;;;;;;;10290621;28;20623;-60
2022/08/17 11:44:09;;;;;;;7.18;3.20;;;;;;;;;;10290002;28;20068;-60
2022/08/17 11:54:40;;;;;;;11.27;3.40;;;;;;;;;;10291008;28;20056;-59
2022/08/17 11:59:55;;;;;;;6.07;3.20;;;;;;;;;;10285934;28;20081;-60
2022/08/17 12:05:01;;;;;;;5.95;3.20;;;;;;;;;;10288401;28;20095;-61
2022/08/17 12:10:01;;;;;;;7.43;4.03;;;;;;;;;;10287434;28;20080;-61
2022/08/17 12:15:01;;;;;;;4.85;3.75;;;;;;;;;;10267811;28;20068;-60
2022/08/17 12:20:11;;;;;;;7.03;4.40;;;;;;;;;;10266134;28;20077;-61
2022/08/17 12:25:13;;;;;;;6.65;3.58;;;;;;;;;;10263435;28;20045;-60
2022/08/17 12:30:13;;;;;;;6.43;3.67;;;;;;;;;;10259552;28;20072;-60
2022/08/17 12:35:18;;;;;;;4.55;3.78;;;;;;;;;;10262293;28;20037;-60
2022/08/17 12:40:21;;;;;;;6.00;3.20;;;;;;;;;;10260276;28;20462;-60
2022/08/17 12:45:22;;;;;;;4.80;3.83;;;;;;;;;;10261905;28;20076;-61
2022/08/17 12:50:21;;;;;;;4.30;3.58;;;;;;;;;;10261234;28;20064;-60
2022/08/17 12:55:29;;;;;;;4.70;3.00;;;;;;;;;;10260621;28;20506;-61
2022/08/17 13:00:32;;;;;;;3.55;3.20;;;;;;;;;;10261415;28;20542;-61
2022/08/17 13:05:32;;;;;;;6.68;3.60;;;;;;;;;;10260856;28;20065;-61
2022/08/17 13:10:33;;;;;;;6.95;3.58;;;;;;;;;;10254727;28;20486;-60
2022/08/17 13:15:34;;;;;;;5.60;3.80;;;;;;;;;;10259513;28;20510;-61
2022/08/17 13:20:32;;;;;;;5.05;3.13;;;;;;;;;;10260909;28;20549;-61
2022/08/17 13:25:32;;;;;;;6.50;3.63;;;;;;;;;;10259646;28;20045;-61
2022/08/17 13:30:32;;;;;;;4.25;3.25;;;;;;;;;;10259666;28;20069;-60
2022/08/17 13:35:39;;;;;;;8.23;2.75;;;;;;;;;;10259887;28;20045;-60
2022/08/17 13:40:44;;;;;;;3.78;3.13;;;;;;;;;;10259543;28;20085;-60
2022/08/17 13:45:47;;;;;;;3.70;3.20;;;;;;;;;;10258234;28;20585;-60
2022/08/17 13:50:48;;;;;;;6.90;3.70;;;;;;;;;;10258929;28;20077;-60
2022/08/17 13:55:50;;;;;;;4.80;3.42;;;;;;;;;;10258764;28;20080;-61
2022/08/17 14:00:50;;;;;;;6.40;3.78;;;;;;;;;;10257783;28;20085;-61
2022/08/17 14:05:49;;;;;;;6.30;3.60;;;;;;;;;;10258513;28;20450;-59
2022/08/17 14:10:56;;;;;;;8.10;4.55;;;;;;;;;;10262307;28;20072;-61
2022/08/17 14:15:55;;;;;;;5.13;4.43;;;;;;;;;;10258465;28;20069;-60
2022/08/17 14:20:55;;;;;;;7.25;5.13;;;;;;;;;;10258805;28;20073;-60
2022/08/17 14:25:55;;;;;;;7.15;4.60;;;;;;;;;;10258051;28;20076;-60
2022/08/17 14:30:53;;;;;;;6.78;5.18;;;;;;;;;;10258477;28;20073;-60
2022/08/17 14:35:52;;;;;;;8.88;5.20;;;;;;;;;;10258264;28;20076;-61
2022/08/17 14:40:50;;;;;;;5.63;4.63;;;;;;;;;;10257575;28;20081;-62
2022/08/17 14:45:50;;;;;;;7.63;5.45;;;;;;;;;;10256727;28;20474;-63
2022/08/17 14:50:48;;;;;;;4.60;3.90;;;;;;;;;;10257267;28;20052;-63
2022/08/17 14:55:49;;;;;;;5.63;3.65;;;;;;;;;;10257419;28;20076;-63
2022/08/17 15:00:49;;;;;;;5.88;4.20;;;;;;;;;;10256664;28;20119;-63
2022/08/17 15:05:49;;;;;;;7.15;4.28;;;;;;;;;;10257523;28;20095;-61
2022/08/17 15:10:49;;;;;;;4.90;3.75;;;;;;;;;;10260500;28;20072;-61
2022/08/17 15:15:51;;;;;;;5.13;3.38;;;;;;;;;;10257051;28;20427;-61
2022/08/17 15:20:51;;;;;;;5.85;5.35;;;;;;;;;;10257234;28;20085;-61
2022/08/17 15:25:51;;;;;;;8.32;5.07;;;;;;;;;;10255675;28;20080;-61
2022/08/17 15:30:49;;;;;;;8.38;4.53;;;;;;;;;;10258013;28;20069;-62
2022/08/17 15:35:49;;;;;;;5.95;5.32;;;;;;;;;;10256291;28;20435;-62
2022/08/17 15:40:50;;;;;;;5.93;3.65;;;;;;;;;;10256039;28;20429;-60
2022/08/17 15:45:48;;;;;;;5.57;4.00;;;;;;;;;;10256950;28;20080;-61
2022/08/17 15:50:57;;;;;;;5.40;4.40;;;;;;;;;;10264443;28;20050;-62
2022/08/17 15:55:57;;;;;;;7.07;4.28;;;;;;;;;;10264035;28;20081;-62
2022/08/17 16:00:56;;;;;;;5.50;4.20;;;;;;;;;;10264310;28;20100;-61
2022/08/17 16:06:14;;;;;;;5.60;3.90;;;;;;;;;;10264353;28;20088;-61
2022/08/17 16:11:16;;;;;;;6.25;3.95;;;;;;;;;;10263522;28;20073;-61
2022/08/17 16:16:14;;;;;;;7.03;5.00;;;;;;;;;;10263143;28;20550;-61
2022/08/17 16:21:26;;;;;;;7.40;4.68;;;;;;;;;;10262457;28;20084;-62
2022/08/17 16:26:26;;;;;;;5.03;3.95;;;;;;;;;;10262803;28;20549;-62
2022/08/17 16:31:24;;;;;;;6.45;4.53;;;;;;;;;;10262555;28;20077;-62
2022/08/17 16:36:22;;;;;;;7.82;4.93;;;;;;;;;;10262723;28;20529;-62
2022/08/17 16:46:36;;;;;;;5.95;5.32;;;;;;;;;;10260457;28;20073;-61
2022/08/17 16:51:42;;;;;;;6.78;4.00;;;;;;;;;;10262025;28;20085;-61
2022/08/17 16:56:41;;;;;;;5.05;4.57;;;;;;;;;;10260615;28;20084;-62
2022/08/17 17:01:42;;;;;;;8.15;4.68;;;;;;;;;;10260210;28;20108;-62
2022/08/17 17:06:43;;;;;;;11.25;4.22;;;;;;;;;;10276821;28;20050;-61
2022/08/17 17:11:43;;;;;;;6.38;5.50;;;;;;;;;;10258675;28;20076;-61
2022/08/17 17:16:45;;;;;;;9.75;6.55;;;;;;;;;;10260576;28;20506;-61
2022/08/17 17:21:46;;;;;;;8.55;6.40;;;;;;;;;;10254810;28;20084;-61
2022/08/17 17:26:52;;;;;;;6.28;5.03;;;;;;;;;;10254351;28;20462;-62
2022/08/17 17:31:56;;;;;;;8.75;7.65;;;;;;;;;;10254983;28;20065;-60
2022/08/17 17:36:57;;;;;;;54.90;49.70;;;;;;;;;;10259594;28;20084;-62
2022/08/17 17:41:57;;;;;;;18.98;13.50;;;;;;;;;;10259415;28;20080;-62
2022/08/17 17:46:58;;;;;;;9.10;6.55;;;;;;;;;;10259162;28;20053;-61
2022/08/17 17:52:00;;;;;;;8.82;5.38;;;;;;;;;;10259588;28;20095;-61
2022/08/17 17:57:14;;;;;;;12.27;6.20;;;;;;;;;;10259163;28;20037;-61
2022/08/17 18:02:45;;;;;;;11.70;10.55;;;;;;;;;;10258386;28;20072;-62
2022/08/17 18:07:42;;;;;;;17.70;16.00;;;;;;;;;;10259134;28;20506;-60
2022/08/17 18:12:45;;;;;;;9.32;8.32;;;;;;;;;;10258234;28;20064;-61
2022/08/17 18:23:07;;;;;;;9.48;5.13;;;;;;;;;;10316436;27;20403;-62
2022/08/17 18:28:07;;;;;;;4.30;3.90;;;;;;;;;;10313692;28;20481;-61
2022/08/17 18:33:18;;;;;;;3.65;3.30;;;;;;;;;;10309290;28;20064;-62
2022/08/17 18:38:22;;;;;;;8.13;6.32;;;;;;;;;;10313916;28;20102;-61
2022/08/17 18:43:24;;;;;;;10.02;9.05;;;;;;;;;;10307885;28;20068;-61
2022/08/17 18:48:27;;;;;;;11.82;7.15;;;;;;;;;;10311738;28;20079;-62
2022/08/17 18:53:25;;;;;;;;;;;;;;;;;;10314418;28;20493;-61
2022/08/17 18:58:28;;;;;;;8.05;4.65;;;;;;;;;;10315288;28;19956;-61
2022/08/17 19:03:27;;;;;;;7.00;4.10;;;;;;;;;;10314136;28;20064;-61
2022/08/17 19:08:32;;;;;;;6.72;4.15;;;;;;;;;;10313824;28;20492;-62
2022/08/17 19:13:34;;;;;;;5.07;3.33;;;;;;;;;;10315776;28;20498;-61
2022/08/17 19:18:35;;;;;;;4.88;3.33;;;;;;;;;;10309055;28;20064;-61
2022/08/17 19:23:37;;;;;;;3.45;3.15;;;;;;;;;;10309137;28;20060;-62
2022/08/17 19:28:54;;;;;;;7.55;3.25;;;;;;;;;;10311504;28;20536;-61
2022/08/17 19:33:53;;;;;;;3.35;3.05;;;;;;;;;;10290515;28;20087;-61
2022/08/17 19:38:54;;;;;;;9.32;4.60;;;;;;;;;;10287042;28;20068;-60
2022/08/17 19:44:07;;;;;;;4.07;3.67;;;;;;;;;;10286581;28;20041;-61
2022/08/17 19:49:10;;;;;;;4.50;3.67;;;;;;;;;;10284552;28;20081;-61
2022/08/17 19:54:12;;;;;;;7.27;3.47;;;;;;;;;;10285961;28;20069;-61
2022/08/17 19:59:13;;;;;;;3.38;3.00;;;;;;;;;;10283315;28;20521;-61
2022/08/17 20:04:16;;;;;;;4.10;3.45;;;;;;;;;;10283256;28;20459;-62
2022/08/17 20:09:18;;;;;;;6.75;4.03;;;;;;;;;;10284693;28;20077;-61
2022/08/17 20:14:18;;;;;;;4.10;3.70;;;;;;;;;;10283240;28;20072;-61
2022/08/17 20:19:22;;;;;;;4.65;3.65;;;;;;;;;;10283913;28;20090;-61
2022/08/17 20:24:25;;;;;;;6.03;3.80;;;;;;;;;;10285554;28;20060;-61
2022/08/17 20:29:32;;;;;;;3.38;3.13;;;;;;;;;;10276422;28;20054;-61
2022/08/17 20:34:39;;;;;;;4.83;4.03;;;;;;;;;;10278731;28;20447;-61
2022/08/17 20:39:39;;;;;;;9.25;3.55;;;;;;;;;;10281439;28;20431;-60
2022/08/17 20:44:38;;;;;;;6.60;2.92;;;;;;;;;;10282552;28;20073;-61
2022/08/17 20:49:52;;;;;;;5.47;3.70;;;;;;;;;;10279236;28;20081;-61
2022/08/17 20:54:51;;;;;;;4.45;3.50;;;;;;;;;;10273100;28;20160;-61
2022/08/17 21:00:14;;;;;;;4.50;3.28;;;;;;;;;;10272623;28;20510;-62
2022/08/17 21:05:31;;;;;;;6.95;3.63;;;;;;;;;;10277232;28;20494;-61
2022/08/17 21:10:36;;;;;;;4.93;3.67;;;;;;;;;;10279607;28;20104;-61
2022/08/17 21:15:39;;;;;;;6.55;3.78;;;;;;;;;;10280121;28;20781;-61
2022/08/17 21:20:44;;;;;;;4.05;3.10;;;;;;;;;;10281624;28;20085;-62
2022/08/17 21:25:56;;;;;;;5.63;3.47;;;;;;;;;;10283796;28;20079;-61
2022/08/17 21:30:56;;;;;;;5.65;3.78;;;;;;;;;;10279677;28;20076;-61
2022/08/17 21:36:15;;;;;;;4.00;3.63;;;;;;;;;;10281906;28;20478;-62
2022/08/17 21:41:18;;;;;;;5.20;3.25;;;;;;;;;;10282208;28;20076;-62
2022/08/17 21:46:22;;;;;;;4.50;3.25;;;;;;;;;;10281302;28;20418;-61
2022/08/17 21:51:23;;;;;;;4.30;3.88;;;;;;;;;;10282689;28;20102;-61
2022/08/17 21:56:23;;;;;;;4.90;3.55;;;;;;;;;;10282505;28;20073;-62
2022/08/17 22:01:24;;;;;;;5.97;3.63;;;;;;;;;;10282239;28;20096;-61
2022/08/17 22:06:26;;;;;;;4.13;3.72;;;;;;;;;;10282421;28;20072;-61
2022/08/17 22:11:24;;;;;;;5.07;3.45;;;;;;;;;;10284048;28;20061;-61
2022/08/17 22:16:23;;;;;;;5.40;3.83;;;;;;;;;;10276100;28;20057;-61
2022/08/17 22:21:27;;;;;;;3.78;3.47;;;;;;;;;;10274888;28;20487;-61
2022/08/17 22:26:27;;;;;;;4.88;3.22;;;;;;;;;;10282203;28;20076;-61
2022/08/17 22:31:27;;;;;;;6.82;4.38;;;;;;;;;;10282089;28;20091;-62
2022/08/17 22:36:28;;;;;;;7.63;3.85;;;;;;;;;;10281216;28;20085;-61
2022/08/17 22:41:48;;;;;;;4.80;3.92;;;;;;;;;;10281581;28;20083;-61
2022/08/17 22:46:51;;;;;;;7.30;3.70;;;;;;;;;;10267540;28;20080;-62
2022/08/17 22:51:49;;;;;;;;;;;;;;;;;;10271355;28;20079;-61
2022/08/17 23:02:10;;;;;;;4.20;3.80;;;;;;;;;;10233356;28;20151;-62
2022/08/17 23:07:08;;;;;;;4.60;4.20;;;;;;;;;;10283806;28;20076;-61
2022/08/17 23:12:10;;;;;;;4.13;3.72;;;;;;;;;;10287981;28;20080;-61
2022/08/17 23:17:08;;;;;;;5.85;3.83;;;;;;;;;;10287830;28;20083;-63
2022/08/17 23:22:08;;;;;;;4.18;3.78;;;;;;;;;;10286512;28;20073;-61
2022/08/17 23:27:06;;;;;;;4.30;3.80;;;;;;;;;;10286442;28;20060;-61
2022/08/17 23:32:06;;;;;;;6.50;3.72;;;;;;;;;;10286821;28;20128;-62
2022/08/17 23:37:05;;;;;;;8.80;3.40;;;;;;;;;;10287572;28;20044;-61
2022/08/17 23:42:06;;;;;;;10.70;6.00;;;;;;;;;;10283874;28;20510;-60
2022/08/17 23:47:06;;;;;;;6.18;4.22;;;;;;;;;;10287023;28;20147;-61
2022/08/17 23:52:08;;;;;;;11.10;4.78;;;;;;;;;;10286654;28;20073;-61
2022/08/17 23:57:08;;;;;;;9.40;5.25;;;;;;;;;;10286842;28;20045;-60
